createdAt,value
2023-11-08T00:02:09.338Z,79.35
2023-11-08T00:07:10.958Z,79.10
2023-11-08T00:12:14.008Z,79.21
2023-11-08T00:17:17.633Z,79.65
2023-11-08T00:22:19.143Z,79.93
2023-11-08T00:27:21.089Z,79.93
2023-11-08T00:32:23.140Z,79.85
2023-11-08T00:37:25.806Z,79.68
2023-11-08T00:42:27.342Z,79.79
2023-11-08T00:47:28.863Z,79.68
2023-11-08T00:52:30.343Z,79.54
2023-11-08T00:57:32.489Z,79.60
2023-11-08T01:02:33.936Z,79.53
2023-11-08T01:07:35.428Z,79.06
2023-11-08T01:12:36.954Z,79.77
2023-11-08T01:17:38.519Z,79.89
2023-11-08T01:22:40.113Z,80.67
2023-11-08T01:27:41.574Z,80.53
2023-11-08T01:32:43.435Z,80.91
2023-11-08T01:37:45.788Z,80.63
2023-11-08T01:42:47.987Z,80.00
2023-11-08T01:47:50.271Z,80.57
2023-11-08T01:52:52.258Z,80.90
2023-11-08T01:57:53.802Z,80.92
2023-11-08T02:02:55.442Z,81.19
2023-11-08T02:07:57.428Z,80.68
2023-11-08T02:12:59.285Z,79.77
2023-11-08T02:18:00.881Z,80.25
2023-11-08T02:23:02.416Z,79.79
2023-11-08T02:28:04.849Z,79.68
2023-11-08T02:33:09.443Z,79.63
2023-11-08T02:38:13.115Z,80.31
2023-11-08T02:43:15.001Z,80.18
2023-11-08T02:48:16.735Z,79.86
2023-11-08T02:53:18.231Z,80.49
2023-11-08T02:58:20.150Z,81.18
2023-11-08T03:03:21.847Z,81.14
2023-11-08T03:08:23.416Z,80.41
2023-11-08T03:13:27.127Z,80.38
2023-11-08T03:18:28.740Z,81.23
2023-11-08T03:23:30.668Z,81.58
2023-11-08T03:28:32.185Z,81.23
2023-11-08T03:33:34.596Z,81.46
2023-11-08T03:38:36.062Z,80.31
2023-11-08T03:43:39.093Z,81.28
2023-11-08T03:48:40.843Z,80.84
2023-11-08T03:53:42.372Z,81.70
2023-11-08T03:58:44.136Z,81.53
2023-11-08T04:03:46.223Z,81.55
2023-11-08T04:08:47.819Z,81.22
2023-11-08T04:13:50.318Z,81.77
2023-11-08T04:18:52.758Z,81.59
2023-11-08T04:23:54.332Z,80.59
2023-11-08T04:28:56.407Z,81.26
2023-11-08T04:33:58.014Z,81.12
2023-11-08T04:39:00.723Z,80.64
2023-11-08T04:44:02.236Z,80.88
2023-11-08T04:49:03.850Z,81.58
2023-11-08T04:54:05.661Z,81.19
2023-11-08T04:59:10.156Z,81.13
2023-11-08T05:04:11.748Z,80.88
2023-11-08T05:09:16.449Z,81.29
2023-11-08T05:14:18.314Z,81.19
2023-11-08T05:19:20.387Z,81.10
2023-11-08T05:24:25.832Z,80.71
2023-11-08T05:29:28.007Z,81.52
2023-11-08T05:34:29.610Z,81.13
2023-11-08T05:39:32.619Z,81.24
2023-11-08T05:44:34.478Z,80.82
2023-11-08T05:49:35.932Z,81.21
2023-11-08T05:54:37.568Z,81.43
2023-11-08T05:59:39.013Z,81.08
2023-11-08T06:04:40.494Z,81.29
2023-11-08T06:09:44.454Z,82.08
2023-11-08T06:14:46.442Z,82.25
2023-11-08T06:19:48.920Z,82.37
2023-11-08T06:24:50.552Z,82.22
2023-11-08T06:29:51.987Z,82.29
2023-11-08T06:34:53.452Z,82.49
2023-11-08T06:39:54.976Z,82.32
2023-11-08T06:44:56.469Z,81.94
2023-11-08T06:49:58.562Z,82.46
2023-11-08T06:55:00.316Z,82.21
2023-11-08T07:00:02.181Z,82.31
2023-11-08T07:05:03.933Z,83.74
2023-11-08T07:10:06.736Z,83.82
2023-11-08T07:15:08.968Z,85.17
2023-11-08T07:20:11.644Z,84.11
2023-11-08T07:25:13.091Z,84.70
2023-11-08T07:30:17.890Z,83.42
2023-11-08T07:35:19.439Z,83.48
2023-11-08T07:40:21.006Z,83.91
2023-11-08T07:45:22.783Z,83.40
2023-11-08T07:50:24.366Z,85.13
2023-11-08T07:55:26.078Z,83.63
2023-11-08T08:00:35.485Z,84.45
2023-11-08T08:05:37.149Z,83.84
2023-11-08T08:10:39.212Z,83.85
2023-11-08T08:15:42.136Z,84.23
2023-11-08T08:20:44.152Z,83.81
2023-11-08T08:25:46.806Z,83.77
2023-11-08T08:30:49.148Z,84.02
2023-11-08T08:35:51.299Z,84.00
2023-11-08T08:40:53.507Z,83.76
2023-11-08T08:45:55.111Z,83.67
2023-11-08T08:50:56.665Z,83.86
2023-11-08T08:55:58.494Z,83.78
2023-11-08T09:01:01.109Z,83.63
2023-11-08T09:06:02.760Z,83.42
2023-11-08T09:11:04.663Z,83.47
2023-11-08T09:16:10.920Z,83.67
2023-11-08T09:21:12.452Z,83.67
2023-11-08T09:26:13.914Z,83.39
2023-11-08T09:31:17.056Z,83.44
2023-11-08T09:36:19.877Z,82.90
2023-11-08T09:41:23.104Z,82.65
2023-11-08T09:46:27.581Z,83.05
2023-11-08T09:51:31.720Z,82.70
2023-11-08T09:56:34.817Z,82.74
2023-11-08T10:01:38.944Z,81.95
2023-11-08T10:06:40.549Z,82.33
2023-11-08T10:11:43.336Z,81.68
2023-11-08T10:16:55.330Z,81.44
2023-11-08T10:21:59.611Z,81.70
2023-11-08T10:27:13.178Z,81.28
2023-11-08T10:32:20.888Z,81.60
2023-11-08T10:37:28.926Z,81.69
2023-11-08T10:42:32.153Z,80.87
2023-11-08T10:47:33.756Z,82.12
2023-11-08T10:52:36.521Z,81.68
2023-11-08T10:57:43.006Z,81.43
2023-11-08T11:03:10.214Z,81.41
2023-11-08T11:08:19.769Z,80.00
2023-11-08T11:13:38.343Z,80.00
2023-11-08T11:18:47.252Z,79.81
2023-11-08T11:23:48.938Z,79.94
2023-11-08T11:28:56.119Z,78.02
2023-11-08T11:33:57.781Z,78.68
2023-11-08T11:39:12.933Z,78.16
2023-11-08T11:44:14.756Z,77.85
2023-11-08T11:49:17.358Z,77.64
2023-11-08T11:54:18.870Z,78.40
2023-11-08T11:59:21.340Z,77.96
2023-11-08T12:04:24.365Z,77.78
2023-11-08T12:09:26.030Z,76.98
2023-11-08T12:14:27.477Z,76.73
2023-11-08T12:19:31.649Z,77.46
2023-11-08T12:24:34.676Z,76.92
2023-11-08T12:29:36.531Z,77.15
2023-11-08T12:34:38.318Z,77.79
2023-11-08T12:39:39.820Z,78.21
2023-11-08T12:44:49.628Z,77.25
2023-11-08T12:49:51.302Z,77.30
2023-11-08T12:54:59.161Z,76.78
2023-11-08T13:00:00.753Z,76.15
2023-11-08T13:05:02.515Z,75.76
2023-11-08T13:10:04.555Z,75.29
2023-11-08T13:15:06.418Z,75.17
2023-11-08T13:20:10.262Z,74.39
2023-11-08T13:25:11.942Z,75.12
2023-11-08T13:30:14.234Z,75.28
2023-11-08T13:35:16.493Z,75.45
2023-11-08T13:40:17.971Z,73.62
2023-11-08T13:45:19.912Z,73.93
2023-11-08T13:50:21.408Z,73.43
2023-11-08T13:55:22.884Z,74.45
2023-11-08T14:00:24.896Z,73.80
2023-11-08T14:05:26.813Z,74.02
2023-11-08T14:10:29.737Z,74.88
2023-11-08T14:15:31.348Z,75.50
2023-11-08T14:20:32.887Z,75.73
2023-11-08T14:25:36.691Z,75.86
2023-11-08T14:30:38.893Z,75.11
2023-11-08T14:35:40.523Z,76.01
2023-11-08T14:40:42.326Z,75.16
2023-11-08T14:45:45.532Z,76.13
2023-11-08T14:50:49.068Z,76.33
2023-11-08T14:55:50.822Z,75.21
2023-11-08T15:00:57.514Z,75.36
2023-11-08T15:05:59.904Z,75.48
2023-11-08T15:11:01.772Z,75.49
2023-11-08T15:16:03.530Z,75.53
2023-11-08T15:21:05.635Z,75.61
2023-11-08T15:26:07.740Z,75.90
2023-11-08T15:31:09.598Z,75.91
2023-11-08T15:36:13.730Z,75.79
2023-11-08T15:41:16.783Z,76.12
2023-11-08T15:46:18.955Z,76.48
2023-11-08T15:51:21.863Z,76.74
2023-11-08T15:56:24.266Z,76.51
2023-11-08T16:01:26.243Z,76.56
2023-11-08T16:06:28.024Z,76.94
2023-11-08T16:11:33.037Z,76.99
2023-11-08T16:16:41.788Z,77.18
2023-11-08T16:21:49.890Z,76.87
2023-11-08T16:26:51.447Z,77.16
2023-11-08T16:32:33.024Z,77.45
2023-11-08T16:37:15.082Z,77.86
2023-11-08T16:42:16.975Z,78.21
2023-11-08T16:47:18.569Z,77.82
2023-11-08T16:52:20.095Z,78.41
2023-11-08T16:57:21.726Z,78.24
2023-11-08T17:02:24.959Z,78.38
2023-11-08T17:07:28.900Z,78.53
2023-11-08T17:12:30.777Z,78.62
2023-11-08T17:17:32.266Z,78.32
2023-11-08T17:22:33.791Z,78.83
2023-11-08T17:27:35.251Z,79.37
2023-11-08T17:32:36.732Z,78.57
2023-11-08T17:37:39.487Z,79.02
2023-11-08T17:42:41.106Z,79.40
2023-11-08T17:47:43.051Z,79.59
2023-11-08T17:52:45.656Z,79.56
2023-11-08T17:57:47.190Z,79.63
2023-11-08T18:02:49.541Z,80.30
2023-11-08T18:07:52.360Z,79.78
2023-11-08T18:12:55.728Z,80.36
2023-11-08T18:17:57.501Z,80.50
2023-11-08T18:22:59.109Z,80.75
2023-11-08T18:28:00.656Z,80.22
2023-11-08T18:33:02.400Z,80.15
2023-11-08T18:38:04.451Z,80.86
2023-11-08T18:43:08.343Z,80.71
2023-11-08T18:48:12.363Z,81.31
2023-11-08T18:53:15.797Z,81.31
2023-11-08T18:58:23.600Z,81.28
2023-11-08T19:03:25.975Z,81.52
2023-11-08T19:08:34.871Z,81.88
2023-11-08T19:13:36.346Z,81.62
2023-11-08T19:18:39.519Z,81.24
2023-11-08T19:23:41.119Z,81.96
2023-11-08T19:28:44.672Z,81.47
2023-11-08T19:33:46.535Z,81.87
2023-11-08T19:38:48.079Z,82.37
2023-11-08T19:43:50.768Z,82.33
2023-11-08T19:48:52.550Z,81.58
2023-11-08T19:53:56.007Z,82.61
2023-11-08T19:59:00.882Z,81.96
2023-11-08T20:04:02.467Z,81.88
2023-11-08T20:09:05.170Z,82.26
2023-11-08T20:14:06.793Z,82.14
2023-11-08T20:19:09.630Z,81.46
2023-11-08T20:24:15.052Z,81.42
2023-11-08T20:29:16.977Z,81.61
2023-11-08T20:34:19.417Z,81.08
2023-11-08T20:39:21.164Z,81.78
2023-11-08T20:44:22.729Z,81.45
2023-11-08T20:49:24.239Z,81.77
2023-11-08T20:54:27.194Z,81.47
2023-11-08T20:59:28.687Z,81.28
2023-11-08T21:04:33.363Z,80.94
2023-11-08T21:09:35.394Z,81.50
2023-11-08T21:14:36.963Z,81.18
2023-11-08T21:19:38.851Z,81.55
2023-11-08T21:24:40.544Z,81.50
2023-11-08T21:29:42.135Z,81.96
2023-11-08T21:34:44.052Z,81.75
2023-11-08T21:39:45.653Z,82.32
2023-11-08T21:44:47.192Z,82.24
2023-11-08T21:49:50.103Z,83.07
2023-11-08T21:54:52.808Z,82.75
2023-11-08T21:59:54.403Z,82.81
2023-11-08T22:04:55.977Z,82.54
2023-11-08T22:09:57.594Z,83.74
2023-11-08T22:15:00.616Z,83.36
2023-11-08T22:20:03.145Z,83.42
2023-11-08T22:25:07.893Z,83.90
2023-11-08T22:30:10.354Z,84.06
2023-11-08T22:35:14.130Z,83.98
2023-11-08T22:40:15.832Z,84.07
2023-11-08T22:45:17.353Z,83.05
2023-11-08T22:50:18.801Z,83.79
2023-11-08T22:55:20.386Z,83.79
2023-11-08T23:00:29.067Z,83.72
2023-11-08T23:05:34.740Z,83.23
2023-11-08T23:10:36.284Z,83.43
2023-11-08T23:15:37.771Z,83.28
2023-11-08T23:20:39.947Z,82.93
2023-11-08T23:25:42.181Z,82.55
2023-11-08T23:30:43.757Z,83.46
2023-11-08T23:35:45.182Z,82.96
2023-11-08T23:40:46.706Z,82.65
2023-11-08T23:45:48.769Z,83.03
2023-11-08T23:50:50.350Z,82.49
2023-11-08T23:55:51.994Z,82.79
